Historyczne dane pomiarowe

Dodano dane terminowe – wersja testowa.

Dane z okresu 1951-2019

Wersja bazy: 1.34 [2019-03-16, lista zmian], aktualizacja planowana na 2019-04-15

Dane meteo z obszaru Polski uzyskane na podstawie danych udostępnionych przez Instytut Meteorologii i Gospodarki Wodnej – Państwowy Instytut Badawczy.

 

Wybierz Datę:    

       

TemperaturaWilgotnośćZachmurzenieWiatrCiśnienieWidzialnośćZjawiska
 Data    tng td wb rh cc ccl cl cm ch dir g1 g2 mslp ppp      
1999-08-10 00:00:00 18.6--- 16.4 17.287wxwxwxwx1wx--1007.0 984.6 0.0---wx
1999-08-10 01:00:00 18.5--- 16.3 17.187wxwxwx2wx--1006.8 984.4----wx
1999-08-10 02:00:00 18.8--- 16.1 17.184wxwxwx2wx--1006.5 984.1----wx
1999-08-10 03:00:00 18.4--- 15.9 16.885wxwxwxwx2wx--1006.8 984.4----wx
1999-08-10 04:00:00 18.2--- 15.7 16.685wxwxwx2wx--1006.8 984.4----wx
1999-08-10 05:00:00 18.7--- 15.7 16.883wxwxwxwx2wx--1007.2 984.8----wx
1999-08-10 06:00:00 19.4--- 15.9 17.280wxwxwxwx3wx--1008.0 985.6 0.0---wx
1999-08-10 07:00:00 20.3--- 16.4 17.878wxwxwx3wx--1007.9 985.6----wx
1999-08-10 08:00:00 21.9--- 16.6 18.572wxwxwx3wx--1007.6 985.4----wx
1999-08-10 09:00:00 22.8--- 16.3 18.667wxwxwx3wx--1007.6 985.5----wx
1999-08-10 10:00:00 22.9--- 15.5 18.263wxwxwx3wx--1008.1 986.0----wx
1999-08-10 11:00:00 24.0--- 15.6 18.659wxwxwxwx2wx--1007.7 985.7----wx
1999-08-10 12:00:00 24.4--- 15.0 18.456wxwxwxwx2wx--1007.8 985.8 0.0---wx
1999-08-10 13:00:00 23.9--- 14.4 17.955wxwxwxwx3wx--1008.1 986.1----wx
1999-08-10 14:00:00 24.5--- 14.5 18.254wxwxwxwx3wx--1008.1 986.1----wx
1999-08-10 15:00:00 24.4--- 13.6 17.751wxwxwxwx2wx--1007.8 985.8----wx
1999-08-10 16:00:00 23.8--- 13.9 17.654wxwxwx2wx--1007.8 985.8----wx
1999-08-10 17:00:00 23.1--- 15.0 18.061wxwxwxwx3wx--1008.1 986.0----wx
1999-08-10 18:00:00 22.4--- 14.9 17.763wxwxwxwx4wx--1008.2 986.0 0.0---wx
1999-08-10 19:00:00 21.1--- 15.2 17.469wxwxwx3wx--1009.1 986.8----wx
1999-08-10 20:00:00 20.1--- 15.8 17.477wxwxwx2wx--1009.5 987.1----wx
1999-08-10 21:00:00 18.6--- 14.9 16.379wxwx3wx--1009.5 987.0----wx
1999-08-10 22:00:00 18.0--- 14.9 16.182wxwx3wx--1009.8 987.3----wx
1999-08-10 23:00:00 17.6--- 15.2 16.186wxwxwx2wx--1009.9 987.3----wx

 

Źródłem pochodzenia danych jest Instytut Meteorologii i Gospodarki Wodnej – Państwowy Instytut Badawczy. Dane Instytutu Meteorologii i Gospodarki Wodnej – Państwowego Instytutu Badawczego zostały przetworzone.

Dane źródłowe można odnaleźć na stronie https://dane.imgw.pl